sensor_id;sensor_type;location;lat;lon;timestamp;P1;durP1;ratioP1;P2;durP2;ratioP2
19830;SDS011;10076;52.008;4.708;2023-06-10T00:01:07;10.95;;;7.65;;
19830;SDS011;10076;52.008;4.708;2023-06-10T00:03:32;10.05;;;7.38;;
19830;SDS011;10076;52.008;4.708;2023-06-10T00:05:57;12.20;;;7.78;;
19830;SDS011;10076;52.008;4.708;2023-06-10T00:08:23;9.65;;;7.05;;
19830;SDS011;10076;52.008;4.708;2023-06-10T00:10:49;10.30;;;7.78;;
19830;SDS011;10076;52.008;4.708;2023-06-10T00:13:15;10.95;;;7.43;;
19830;SDS011;10076;52.008;4.708;2023-06-10T00:15:41;8.18;;;6.72;;
19830;SDS011;10076;52.008;4.708;2023-06-10T00:18:07;8.45;;;7.10;;
19830;SDS011;10076;52.008;4.708;2023-06-10T00:20:34;8.18;;;6.78;;
19830;SDS011;10076;52.008;4.708;2023-06-10T00:23:01;9.82;;;7.32;;
19830;SDS011;10076;52.008;4.708;2023-06-10T00:25:26;10.90;;;7.40;;
19830;SDS011;10076;52.008;4.708;2023-06-10T00:27:51;10.32;;;7.07;;
19830;SDS011;10076;52.008;4.708;2023-06-10T00:30:17;9.65;;;7.03;;
19830;SDS011;10076;52.008;4.708;2023-06-10T00:32:42;8.95;;;6.85;;
19830;SDS011;10076;52.008;4.708;2023-06-10T00:35:08;8.10;;;7.05;;
19830;SDS011;10076;52.008;4.708;2023-06-10T00:37:33;7.88;;;6.65;;
19830;SDS011;10076;52.008;4.708;2023-06-10T00:40:00;8.30;;;6.80;;
19830;SDS011;10076;52.008;4.708;2023-06-10T00:42:26;9.80;;;6.65;;
19830;SDS011;10076;52.008;4.708;2023-06-10T00:44:52;10.15;;;6.88;;
19830;SDS011;10076;52.008;4.708;2023-06-10T00:47:17;9.77;;;6.73;;
19830;SDS011;10076;52.008;4.708;2023-06-10T00:49:43;11.10;;;6.32;;
19830;SDS011;10076;52.008;4.708;2023-06-10T00:52:10;8.93;;;6.28;;
19830;SDS011;10076;52.008;4.708;2023-06-10T00:54:36;10.95;;;6.65;;
19830;SDS011;10076;52.008;4.708;2023-06-10T00:57:03;8.77;;;6.63;;
19830;SDS011;10076;52.008;4.708;2023-06-10T00:59:29;8.77;;;6.57;;
19830;SDS011;10076;52.008;4.708;2023-06-10T01:01:55;9.57;;;7.15;;
19830;SDS011;10076;52.008;4.708;2023-06-10T01:04:21;9.80;;;6.95;;
19830;SDS011;10076;52.008;4.708;2023-06-10T01:12:30;7.45;;;5.78;;
19830;SDS011;10076;52.008;4.708;2023-06-10T01:14:58;10.57;;;6.78;;
19830;SDS011;10076;52.008;4.708;2023-06-10T01:17:25;7.57;;;5.60;;
19830;SDS011;10076;52.008;4.708;2023-06-10T01:19:55;10.55;;;6.72;;
19830;SDS011;10076;52.008;4.708;2023-06-10T01:22:26;9.65;;;5.80;;
19830;SDS011;10076;52.008;4.708;2023-06-10T01:24:53;8.77;;;5.78;;
19830;SDS011;10076;52.008;4.708;2023-06-10T01:27:23;10.15;;;5.82;;
19830;SDS011;10076;52.008;4.708;2023-06-10T01:29:54;9.02;;;6.22;;
19830;SDS011;10076;52.008;4.708;2023-06-10T01:32:27;7.85;;;5.95;;
19830;SDS011;10076;52.008;4.708;2023-06-10T01:34:57;9.50;;;6.15;;
19830;SDS011;10076;52.008;4.708;2023-06-10T01:37:25;8.70;;;5.72;;
19830;SDS011;10076;52.008;4.708;2023-06-10T01:39:51;7.75;;;5.95;;
19830;SDS011;10076;52.008;4.708;2023-06-10T01:42:19;6.47;;;5.35;;
19830;SDS011;10076;52.008;4.708;2023-06-10T01:44:45;9.40;;;5.72;;
19830;SDS011;10076;52.008;4.708;2023-06-10T01:47:11;8.48;;;5.50;;
19830;SDS011;10076;52.008;4.708;2023-06-10T01:49:36;8.30;;;5.97;;
19830;SDS011;10076;52.008;4.708;2023-06-10T01:52:01;8.50;;;5.65;;
19830;SDS011;10076;52.008;4.708;2023-06-10T01:54:27;7.97;;;5.38;;
19830;SDS011;10076;52.008;4.708;2023-06-10T01:56:52;7.57;;;5.03;;
19830;SDS011;10076;52.008;4.708;2023-06-10T01:59:17;10.75;;;6.03;;
19830;SDS011;10076;52.008;4.708;2023-06-10T02:01:42;9.57;;;5.72;;
19830;SDS011;10076;52.008;4.708;2023-06-10T02:04:08;10.00;;;5.50;;
19830;SDS011;10076;52.008;4.708;2023-06-10T02:06:33;6.57;;;4.93;;
19830;SDS011;10076;52.008;4.708;2023-06-10T02:09:02;6.30;;;5.10;;
19830;SDS011;10076;52.008;4.708;2023-06-10T02:11:28;5.88;;;5.28;;
19830;SDS011;10076;52.008;4.708;2023-06-10T02:13:53;7.53;;;4.75;;
19830;SDS011;10076;52.008;4.708;2023-06-10T02:16:19;7.38;;;5.18;;
19830;SDS011;10076;52.008;4.708;2023-06-10T02:18:46;10.10;;;4.53;;
19830;SDS011;10076;52.008;4.708;2023-06-10T02:21:11;7.15;;;5.05;;
19830;SDS011;10076;52.008;4.708;2023-06-10T02:23:37;5.88;;;4.80;;
19830;SDS011;10076;52.008;4.708;2023-06-10T02:26:02;7.80;;;5.32;;
19830;SDS011;10076;52.008;4.708;2023-06-10T02:28:28;7.43;;;4.93;;
19830;SDS011;10076;52.008;4.708;2023-06-10T02:30:53;7.50;;;5.07;;
19830;SDS011;10076;52.008;4.708;2023-06-10T02:33:18;9.45;;;4.93;;
19830;SDS011;10076;52.008;4.708;2023-06-10T02:35:44;7.30;;;5.03;;
19830;SDS011;10076;52.008;4.708;2023-06-10T02:38:10;7.80;;;4.95;;
19830;SDS011;10076;52.008;4.708;2023-06-10T02:40:35;6.53;;;4.53;;
19830;SDS011;10076;52.008;4.708;2023-06-10T02:43:01;6.85;;;4.80;;
19830;SDS011;10076;52.008;4.708;2023-06-10T02:45:26;7.13;;;4.75;;
19830;SDS011;10076;52.008;4.708;2023-06-10T02:47:51;8.52;;;4.95;;
19830;SDS011;10076;52.008;4.708;2023-06-10T02:50:17;8.18;;;4.50;;
19830;SDS011;10076;52.008;4.708;2023-06-10T02:52:43;7.72;;;4.85;;
19830;SDS011;10076;52.008;4.708;2023-06-10T02:55:08;7.68;;;4.68;;
19830;SDS011;10076;52.008;4.708;2023-06-10T02:57:34;6.25;;;4.18;;
19830;SDS011;10076;52.008;4.708;2023-06-10T02:59:59;5.28;;;4.45;;
19830;SDS011;10076;52.008;4.708;2023-06-10T03:02:24;9.20;;;4.22;;
19830;SDS011;10076;52.008;4.708;2023-06-10T03:04:56;7.32;;;4.25;;
19830;SDS011;10076;52.008;4.708;2023-06-10T03:07:21;7.32;;;4.05;;
19830;SDS011;10076;52.008;4.708;2023-06-10T03:09:47;7.35;;;4.22;;
19830;SDS011;10076;52.008;4.708;2023-06-10T03:12:12;5.45;;;3.92;;
19830;SDS011;10076;52.008;4.708;2023-06-10T03:14:37;10.10;;;4.47;;
19830;SDS011;10076;52.008;4.708;2023-06-10T03:17:04;6.90;;;4.15;;
19830;SDS011;10076;52.008;4.708;2023-06-10T03:19:30;7.60;;;4.05;;
19830;SDS011;10076;52.008;4.708;2023-06-10T03:22:08;6.38;;;4.53;;
19830;SDS011;10076;52.008;4.708;2023-06-10T03:24:35;5.50;;;3.65;;
19830;SDS011;10076;52.008;4.708;2023-06-10T03:27:01;8.05;;;4.38;;
19830;SDS011;10076;52.008;4.708;2023-06-10T03:29:27;6.53;;;4.22;;
19830;SDS011;10076;52.008;4.708;2023-06-10T03:31:52;7.97;;;4.20;;
19830;SDS011;10076;52.008;4.708;2023-06-10T03:34:17;8.02;;;4.07;;
19830;SDS011;10076;52.008;4.708;2023-06-10T03:36:43;8.52;;;4.20;;
19830;SDS011;10076;52.008;4.708;2023-06-10T03:39:08;7.93;;;3.65;;
19830;SDS011;10076;52.008;4.708;2023-06-10T03:41:34;5.00;;;3.78;;
19830;SDS011;10076;52.008;4.708;2023-06-10T03:43:59;6.20;;;3.40;;
19830;SDS011;10076;52.008;4.708;2023-06-10T03:46:25;5.75;;;3.58;;
19830;SDS011;10076;52.008;4.708;2023-06-10T03:48:50;7.30;;;4.03;;
19830;SDS011;10076;52.008;4.708;2023-06-10T03:51:16;5.18;;;3.38;;
19830;SDS011;10076;52.008;4.708;2023-06-10T03:53:41;6.85;;;3.58;;
19830;SDS011;10076;52.008;4.708;2023-06-10T03:56:06;8.07;;;3.63;;
19830;SDS011;10076;52.008;4.708;2023-06-10T03:58:32;6.18;;;3.85;;
19830;SDS011;10076;52.008;4.708;2023-06-10T04:00:57;6.40;;;3.85;;
19830;SDS011;10076;52.008;4.708;2023-06-10T04:03:22;5.70;;;3.58;;
19830;SDS011;10076;52.008;4.708;2023-06-10T04:05:48;5.55;;;3.40;;
19830;SDS011;10076;52.008;4.708;2023-06-10T04:08:15;5.97;;;3.83;;
19830;SDS011;10076;52.008;4.708;2023-06-10T04:10:40;7.47;;;3.75;;
19830;SDS011;10076;52.008;4.708;2023-06-10T04:13:05;6.10;;;3.63;;
19830;SDS011;10076;52.008;4.708;2023-06-10T04:15:31;5.07;;;3.22;;
19830;SDS011;10076;52.008;4.708;2023-06-10T04:17:59;6.63;;;3.60;;
19830;SDS011;10076;52.008;4.708;2023-06-10T04:20:26;6.22;;;3.65;;
19830;SDS011;10076;52.008;4.708;2023-06-10T04:22:51;6.32;;;3.38;;
19830;SDS011;10076;52.008;4.708;2023-06-10T04:25:17;5.55;;;3.22;;
19830;SDS011;10076;52.008;4.708;2023-06-10T04:27:43;7.57;;;3.70;;
19830;SDS011;10076;52.008;4.708;2023-06-10T04:30:08;6.30;;;3.30;;
19830;SDS011;10076;52.008;4.708;2023-06-10T04:32:34;5.60;;;3.33;;
19830;SDS011;10076;52.008;4.708;2023-06-10T04:35:00;8.45;;;3.90;;
19830;SDS011;10076;52.008;4.708;2023-06-10T04:37:25;7.05;;;3.53;;
19830;SDS011;10076;52.008;4.708;2023-06-10T04:39:51;5.45;;;3.45;;
19830;SDS011;10076;52.008;4.708;2023-06-10T04:42:16;8.40;;;3.78;;
19830;SDS011;10076;52.008;4.708;2023-06-10T04:44:41;4.75;;;3.28;;
19830;SDS011;10076;52.008;4.708;2023-06-10T04:47:08;7.07;;;3.63;;
19830;SDS011;10076;52.008;4.708;2023-06-10T04:49:34;8.52;;;3.72;;
19830;SDS011;10076;52.008;4.708;2023-06-10T04:52:00;7.10;;;4.25;;
19830;SDS011;10076;52.008;4.708;2023-06-10T04:54:25;8.15;;;3.78;;
19830;SDS011;10076;52.008;4.708;2023-06-10T04:56:51;5.75;;;3.60;;
19830;SDS011;10076;52.008;4.708;2023-06-10T04:59:16;6.05;;;3.63;;
19830;SDS011;10076;52.008;4.708;2023-06-10T05:01:41;8.23;;;3.65;;
19830;SDS011;10076;52.008;4.708;2023-06-10T05:04:07;6.65;;;3.67;;
19830;SDS011;10076;52.008;4.708;2023-06-10T05:06:32;7.55;;;4.28;;
19830;SDS011;10076;52.008;4.708;2023-06-10T05:08:57;6.43;;;3.97;;
19830;SDS011;10076;52.008;4.708;2023-06-10T05:11:22;7.43;;;4.07;;
19830;SDS011;10076;52.008;4.708;2023-06-10T05:13:48;5.80;;;3.40;;
19830;SDS011;10076;52.008;4.708;2023-06-10T05:16:13;6.82;;;3.78;;
19830;SDS011;10076;52.008;4.708;2023-06-10T05:18:40;7.68;;;3.78;;
19830;SDS011;10076;52.008;4.708;2023-06-10T05:21:05;6.28;;;3.70;;
19830;SDS011;10076;52.008;4.708;2023-06-10T05:23:31;6.55;;;3.22;;
19830;SDS011;10076;52.008;4.708;2023-06-10T05:25:56;6.95;;;3.60;;
19830;SDS011;10076;52.008;4.708;2023-06-10T05:28:23;6.50;;;3.80;;
19830;SDS011;10076;52.008;4.708;2023-06-10T05:30:48;7.28;;;3.78;;
19830;SDS011;10076;52.008;4.708;2023-06-10T05:33:13;6.55;;;3.45;;
19830;SDS011;10076;52.008;4.708;2023-06-10T05:35:38;5.55;;;3.72;;
19830;SDS011;10076;52.008;4.708;2023-06-10T05:38:04;6.97;;;3.50;;
19830;SDS011;10076;52.008;4.708;2023-06-10T05:40:29;5.65;;;3.63;;
19830;SDS011;10076;52.008;4.708;2023-06-10T05:42:55;6.57;;;3.85;;
19830;SDS011;10076;52.008;4.708;2023-06-10T05:45:20;4.88;;;3.38;;
19830;SDS011;10076;52.008;4.708;2023-06-10T05:47:45;8.88;;;3.88;;
19830;SDS011;10076;52.008;4.708;2023-06-10T05:50:10;6.00;;;4.32;;
19830;SDS011;10076;52.008;4.708;2023-06-10T05:52:36;8.27;;;3.72;;
19830;SDS011;10076;52.008;4.708;2023-06-10T05:55:04;7.78;;;3.90;;
19830;SDS011;10076;52.008;4.708;2023-06-10T05:57:30;7.40;;;4.15;;
19830;SDS011;10076;52.008;4.708;2023-06-10T05:59:55;8.43;;;4.07;;
19830;SDS011;10076;52.008;4.708;2023-06-10T06:02:20;6.93;;;3.60;;
19830;SDS011;10076;52.008;4.708;2023-06-10T06:04:45;5.45;;;3.83;;
19830;SDS011;10076;52.008;4.708;2023-06-10T06:07:11;8.40;;;3.95;;
19830;SDS011;10076;52.008;4.708;2023-06-10T06:09:36;6.90;;;3.70;;
19830;SDS011;10076;52.008;4.708;2023-06-10T06:12:02;8.38;;;4.13;;
19830;SDS011;10076;52.008;4.708;2023-06-10T06:14:30;5.32;;;3.53;;
19830;SDS011;10076;52.008;4.708;2023-06-10T06:16:56;7.32;;;3.85;;
19830;SDS011;10076;52.008;4.708;2023-06-10T06:19:21;7.30;;;4.20;;
19830;SDS011;10076;52.008;4.708;2023-06-10T06:21:47;6.13;;;3.70;;
19830;SDS011;10076;52.008;4.708;2023-06-10T06:24:12;6.80;;;4.15;;
19830;SDS011;10076;52.008;4.708;2023-06-10T06:26:37;6.70;;;4.15;;
19830;SDS011;10076;52.008;4.708;2023-06-10T06:29:02;6.40;;;4.30;;
19830;SDS011;10076;52.008;4.708;2023-06-10T06:31:28;6.80;;;4.03;;
19830;SDS011;10076;52.008;4.708;2023-06-10T06:33:53;6.43;;;4.18;;
19830;SDS011;10076;52.008;4.708;2023-06-10T06:36:18;8.48;;;3.78;;
19830;SDS011;10076;52.008;4.708;2023-06-10T06:38:44;7.22;;;3.70;;
19830;SDS011;10076;52.008;4.708;2023-06-10T06:41:09;5.43;;;4.10;;
19830;SDS011;10076;52.008;4.708;2023-06-10T06:43:34;6.45;;;4.07;;
19830;SDS011;10076;52.008;4.708;2023-06-10T06:45:59;8.55;;;3.90;;
19830;SDS011;10076;52.008;4.708;2023-06-10T06:48:25;6.63;;;3.80;;
19830;SDS011;10076;52.008;4.708;2023-06-10T06:50:50;10.18;;;4.30;;
19830;SDS011;10076;52.008;4.708;2023-06-10T06:53:16;8.52;;;4.32;;
19830;SDS011;10076;52.008;4.708;2023-06-10T06:55:41;6.88;;;3.97;;
19830;SDS011;10076;52.008;4.708;2023-06-10T06:58:06;5.82;;;4.13;;
19830;SDS011;10076;52.008;4.708;2023-06-10T07:00:32;6.50;;;3.85;;
19830;SDS011;10076;52.008;4.708;2023-06-10T07:02:57;6.00;;;4.20;;
19830;SDS011;10076;52.008;4.708;2023-06-10T07:05:23;10.50;;;3.88;;
19830;SDS011;10076;52.008;4.708;2023-06-10T07:07:51;7.43;;;4.03;;
19830;SDS011;10076;52.008;4.708;2023-06-10T07:10:19;6.32;;;3.85;;
19830;SDS011;10076;52.008;4.708;2023-06-10T07:12:48;7.28;;;4.15;;
19830;SDS011;10076;52.008;4.708;2023-06-10T07:15:14;6.50;;;4.32;;
19830;SDS011;10076;52.008;4.708;2023-06-10T07:17:39;6.82;;;4.35;;
19830;SDS011;10076;52.008;4.708;2023-06-10T07:20:05;6.40;;;4.10;;
19830;SDS011;10076;52.008;4.708;2023-06-10T07:22:30;7.60;;;4.28;;
19830;SDS011;10076;52.008;4.708;2023-06-10T07:24:56;6.07;;;4.72;;
19830;SDS011;10076;52.008;4.708;2023-06-10T07:27:21;5.40;;;4.13;;
19830;SDS011;10076;52.008;4.708;2023-06-10T07:29:46;7.22;;;4.38;;
19830;SDS011;10076;52.008;4.708;2023-06-10T07:32:12;8.60;;;4.63;;
19830;SDS011;10076;52.008;4.708;2023-06-10T07:34:37;6.47;;;3.97;;
19830;SDS011;10076;52.008;4.708;2023-06-10T07:37:02;7.18;;;3.65;;
19830;SDS011;10076;52.008;4.708;2023-06-10T07:39:28;8.02;;;4.40;;
19830;SDS011;10076;52.008;4.708;2023-06-10T07:41:53;8.57;;;4.50;;
19830;SDS011;10076;52.008;4.708;2023-06-10T07:44:20;7.97;;;4.68;;
19830;SDS011;10076;52.008;4.708;2023-06-10T07:46:45;6.93;;;4.55;;
19830;SDS011;10076;52.008;4.708;2023-06-10T07:49:11;6.13;;;4.03;;
19830;SDS011;10076;52.008;4.708;2023-06-10T07:51:36;6.78;;;4.20;;
19830;SDS011;10076;52.008;4.708;2023-06-10T07:54:02;7.13;;;4.28;;
19830;SDS011;10076;52.008;4.708;2023-06-10T07:56:28;6.88;;;4.40;;
19830;SDS011;10076;52.008;4.708;2023-06-10T07:58:53;6.60;;;4.57;;
19830;SDS011;10076;52.008;4.708;2023-06-10T08:01:18;8.65;;;4.32;;
19830;SDS011;10076;52.008;4.708;2023-06-10T08:03:43;8.75;;;4.97;;
19830;SDS011;10076;52.008;4.708;2023-06-10T08:06:09;6.28;;;4.40;;
19830;SDS011;10076;52.008;4.708;2023-06-10T08:08:36;9.82;;;5.75;;
19830;SDS011;10076;52.008;4.708;2023-06-10T08:11:06;7.10;;;4.45;;
19830;SDS011;10076;52.008;4.708;2023-06-10T08:13:32;9.30;;;4.38;;
19830;SDS011;10076;52.008;4.708;2023-06-10T08:15:57;5.90;;;4.28;;
19830;SDS011;10076;52.008;4.708;2023-06-10T08:18:23;7.20;;;4.13;;
19830;SDS011;10076;52.008;4.708;2023-06-10T08:20:48;6.18;;;4.88;;
19830;SDS011;10076;52.008;4.708;2023-06-10T08:23:13;6.65;;;3.90;;
19830;SDS011;10076;52.008;4.708;2023-06-10T08:25:39;7.55;;;4.57;;
19830;SDS011;10076;52.008;4.708;2023-06-10T08:28:04;8.38;;;4.63;;
19830;SDS011;10076;52.008;4.708;2023-06-10T08:30:30;8.45;;;5.28;;
19830;SDS011;10076;52.008;4.708;2023-06-10T08:32:55;6.97;;;4.50;;
19830;SDS011;10076;52.008;4.708;2023-06-10T08:35:21;7.72;;;4.50;;
19830;SDS011;10076;52.008;4.708;2023-06-10T08:37:46;7.43;;;4.30;;
19830;SDS011;10076;52.008;4.708;2023-06-10T08:40:12;6.28;;;4.57;;
19830;SDS011;10076;52.008;4.708;2023-06-10T08:45:13;5.38;;;4.13;;
19830;SDS011;10076;52.008;4.708;2023-06-10T08:47:44;6.25;;;4.68;;
19830;SDS011;10076;52.008;4.708;2023-06-10T08:50:11;8.13;;;4.30;;
19830;SDS011;10076;52.008;4.708;2023-06-10T08:52:37;6.15;;;4.18;;
19830;SDS011;10076;52.008;4.708;2023-06-10T08:57:37;5.60;;;4.15;;
19830;SDS011;10076;52.008;4.708;2023-06-10T09:00:02;7.93;;;4.68;;
19830;SDS011;10076;52.008;4.708;2023-06-10T09:02:29;5.45;;;4.38;;
19830;SDS011;10076;52.008;4.708;2023-06-10T09:04:56;8.23;;;4.90;;
19830;SDS011;10076;52.008;4.708;2023-06-10T09:07:24;6.68;;;4.43;;
19830;SDS011;10076;52.008;4.708;2023-06-10T09:09:50;5.28;;;4.20;;
19830;SDS011;10076;52.008;4.708;2023-06-10T09:12:18;7.28;;;4.70;;
19830;SDS011;10076;52.008;4.708;2023-06-10T09:14:44;6.88;;;4.53;;
19830;SDS011;10076;52.008;4.708;2023-06-10T09:17:10;5.55;;;4.50;;
19830;SDS011;10076;52.008;4.708;2023-06-10T09:19:35;8.20;;;4.43;;
19830;SDS011;10076;52.008;4.708;2023-06-10T09:22:03;5.70;;;4.68;;
19830;SDS011;10076;52.008;4.708;2023-06-10T09:24:28;4.40;;;3.70;;
19830;SDS011;10076;52.008;4.708;2023-06-10T09:27:01;6.95;;;5.25;;
19830;SDS011;10076;52.008;4.708;2023-06-10T09:29:31;6.53;;;4.47;;
19830;SDS011;10076;52.008;4.708;2023-06-10T09:32:09;9.18;;;5.00;;
19830;SDS011;10076;52.008;4.708;2023-06-10T09:34:35;5.30;;;4.35;;
19830;SDS011;10076;52.008;4.708;2023-06-10T09:37:01;6.35;;;4.40;;
19830;SDS011;10076;52.008;4.708;2023-06-10T09:39:26;8.07;;;4.47;;
19830;SDS011;10076;52.008;4.708;2023-06-10T09:41:52;6.35;;;4.13;;
19830;SDS011;10076;52.008;4.708;2023-06-10T09:44:18;6.50;;;4.15;;
19830;SDS011;10076;52.008;4.708;2023-06-10T09:46:45;6.10;;;4.97;;
19830;SDS011;10076;52.008;4.708;2023-06-10T09:49:12;6.40;;;4.70;;
19830;SDS011;10076;52.008;4.708;2023-06-10T09:51:38;8.82;;;5.05;;
19830;SDS011;10076;52.008;4.708;2023-06-10T09:54:14;5.20;;;4.40;;
19830;SDS011;10076;52.008;4.708;2023-06-10T09:56:39;5.30;;;3.95;;
19830;SDS011;10076;52.008;4.708;2023-06-10T09:59:07;7.22;;;4.50;;
19830;SDS011;10076;52.008;4.708;2023-06-10T10:01:33;6.18;;;4.40;;
19830;SDS011;10076;52.008;4.708;2023-06-10T10:03:58;6.40;;;4.75;;
19830;SDS011;10076;52.008;4.708;2023-06-10T10:06:24;6.07;;;4.50;;
19830;SDS011;10076;52.008;4.708;2023-06-10T10:08:50;7.13;;;4.88;;
19830;SDS011;10076;52.008;4.708;2023-06-10T10:11:19;6.38;;;4.22;;
19830;SDS011;10076;52.008;4.708;2023-06-10T10:13:47;5.55;;;4.72;;
19830;SDS011;10076;52.008;4.708;2023-06-10T10:16:14;7.60;;;4.70;;
19830;SDS011;10076;52.008;4.708;2023-06-10T10:19:01;6.35;;;4.68;;
19830;SDS011;10076;52.008;4.708;2023-06-10T10:21:32;6.03;;;4.60;;
19830;SDS011;10076;52.008;4.708;2023-06-10T10:24:12;5.45;;;3.92;;
19830;SDS011;10076;52.008;4.708;2023-06-10T10:26:48;7.00;;;5.10;;
19830;SDS011;10076;52.008;4.708;2023-06-10T10:31:54;6.50;;;5.30;;
19830;SDS011;10076;52.008;4.708;2023-06-10T10:34:24;6.32;;;4.85;;
19830;SDS011;10076;52.008;4.708;2023-06-10T10:36:56;5.55;;;5.05;;
19830;SDS011;10076;52.008;4.708;2023-06-10T10:39:22;5.63;;;4.78;;
19830;SDS011;10076;52.008;4.708;2023-06-10T10:41:49;5.68;;;5.07;;
19830;SDS011;10076;52.008;4.708;2023-06-10T10:44:16;5.55;;;4.63;;
19830;SDS011;10076;52.008;4.708;2023-06-10T10:46:42;5.28;;;4.57;;
19830;SDS011;10076;52.008;4.708;2023-06-10T10:49:20;7.13;;;5.20;;
19830;SDS011;10076;52.008;4.708;2023-06-10T10:51:54;6.03;;;4.78;;
19830;SDS011;10076;52.008;4.708;2023-06-10T10:54:28;5.75;;;5.00;;
19830;SDS011;10076;52.008;4.708;2023-06-10T10:59:51;5.47;;;4.97;;
19830;SDS011;10076;52.008;4.708;2023-06-10T11:05:02;5.63;;;5.10;;
19830;SDS011;10076;52.008;4.708;2023-06-10T11:07:29;6.68;;;5.05;;
19830;SDS011;10076;52.008;4.708;2023-06-10T11:10:03;5.32;;;4.53;;
19830;SDS011;10076;52.008;4.708;2023-06-10T11:15:20;6.38;;;4.35;;
19830;SDS011;10076;52.008;4.708;2023-06-10T11:20:44;5.03;;;4.53;;
19830;SDS011;10076;52.008;4.708;2023-06-10T11:23:10;4.88;;;4.20;;
19830;SDS011;10076;52.008;4.708;2023-06-10T11:25:49;5.15;;;4.65;;
19830;SDS011;10076;52.008;4.708;2023-06-10T11:28:19;6.10;;;4.70;;
19830;SDS011;10076;52.008;4.708;2023-06-10T11:30:45;6.45;;;5.40;;
19830;SDS011;10076;52.008;4.708;2023-06-10T11:33:13;5.32;;;4.55;;
19830;SDS011;10076;52.008;4.708;2023-06-10T11:35:41;5.25;;;4.75;;
19830;SDS011;10076;52.008;4.708;2023-06-10T11:38:07;5.22;;;4.60;;
19830;SDS011;10076;52.008;4.708;2023-06-10T11:40:32;5.85;;;4.63;;
19830;SDS011;10076;52.008;4.708;2023-06-10T11:42:59;5.03;;;4.53;;
19830;SDS011;10076;52.008;4.708;2023-06-10T11:45:25;4.78;;;4.38;;
19830;SDS011;10076;52.008;4.708;2023-06-10T11:47:59;6.28;;;4.43;;
19830;SDS011;10076;52.008;4.708;2023-06-10T11:50:29;5.97;;;4.75;;
19830;SDS011;10076;52.008;4.708;2023-06-10T11:52:55;4.78;;;4.38;;
19830;SDS011;10076;52.008;4.708;2023-06-10T11:55:21;5.13;;;4.63;;
19830;SDS011;10076;52.008;4.708;2023-06-10T11:57:46;4.50;;;4.20;;
19830;SDS011;10076;52.008;4.708;2023-06-10T12:00:12;5.60;;;4.57;;
19830;SDS011;10076;52.008;4.708;2023-06-10T12:02:38;4.65;;;4.25;;
19830;SDS011;10076;52.008;4.708;2023-06-10T12:05:10;5.05;;;4.55;;
19830;SDS011;10076;52.008;4.708;2023-06-10T12:07:36;5.13;;;4.63;;
19830;SDS011;10076;52.008;4.708;2023-06-10T12:10:02;4.63;;;4.10;;
19830;SDS011;10076;52.008;4.708;2023-06-10T12:12:27;4.93;;;4.43;;
19830;SDS011;10076;52.008;4.708;2023-06-10T12:14:54;6.75;;;4.45;;
19830;SDS011;10076;52.008;4.708;2023-06-10T12:19:57;5.05;;;4.55;;
19830;SDS011;10076;52.008;4.708;2023-06-10T12:22:23;7.03;;;5.10;;
19830;SDS011;10076;52.008;4.708;2023-06-10T12:25:02;4.65;;;4.25;;
19830;SDS011;10076;52.008;4.708;2023-06-10T12:27:29;5.10;;;4.45;;
19830;SDS011;10076;52.008;4.708;2023-06-10T12:29:56;5.38;;;4.88;;
19830;SDS011;10076;52.008;4.708;2023-06-10T12:32:43;5.68;;;4.50;;
19830;SDS011;10076;52.008;4.708;2023-06-10T12:35:10;4.75;;;4.13;;
19830;SDS011;10076;52.008;4.708;2023-06-10T12:37:38;5.53;;;4.72;;
19830;SDS011;10076;52.008;4.708;2023-06-10T12:40:04;4.82;;;4.43;;
19830;SDS011;10076;52.008;4.708;2023-06-10T12:42:31;5.03;;;4.57;;
19830;SDS011;10076;52.008;4.708;2023-06-10T12:45:00;4.63;;;4.22;;
19830;SDS011;10076;52.008;4.708;2023-06-10T12:47:43;5.40;;;4.55;;
19830;SDS011;10076;52.008;4.708;2023-06-10T12:50:09;5.28;;;4.78;;
19830;SDS011;10076;52.008;4.708;2023-06-10T12:52:36;5.20;;;4.57;;
19830;SDS011;10076;52.008;4.708;2023-06-10T12:55:02;5.25;;;4.75;;
19830;SDS011;10076;52.008;4.708;2023-06-10T12:57:29;6.13;;;5.28;;
19830;SDS011;10076;52.008;4.708;2023-06-10T12:59:54;5.43;;;4.72;;
19830;SDS011;10076;52.008;4.708;2023-06-10T13:02:25;4.85;;;4.45;;
19830;SDS011;10076;52.008;4.708;2023-06-10T13:04:50;5.82;;;4.80;;
19830;SDS011;10076;52.008;4.708;2023-06-10T13:07:16;5.68;;;5.07;;
19830;SDS011;10076;52.008;4.708;2023-06-10T13:09:42;5.00;;;4.60;;
19830;SDS011;10076;52.008;4.708;2023-06-10T13:12:07;5.35;;;4.85;;
19830;SDS011;10076;52.008;4.708;2023-06-10T13:14:33;6.35;;;4.70;;
19830;SDS011;10076;52.008;4.708;2023-06-10T13:16:59;6.97;;;4.90;;
19830;SDS011;10076;52.008;4.708;2023-06-10T13:19:24;7.05;;;5.38;;
19830;SDS011;10076;52.008;4.708;2023-06-10T13:21:50;5.30;;;4.80;;
19830;SDS011;10076;52.008;4.708;2023-06-10T13:24:16;8.77;;;5.25;;
19830;SDS011;10076;52.008;4.708;2023-06-10T13:26:41;5.32;;;4.82;;
19830;SDS011;10076;52.008;4.708;2023-06-10T13:29:07;5.40;;;4.90;;
19830;SDS011;10076;52.008;4.708;2023-06-10T13:31:39;5.30;;;4.80;;
19830;SDS011;10076;52.008;4.708;2023-06-10T13:34:05;5.88;;;4.80;;
19830;SDS011;10076;52.008;4.708;2023-06-10T13:36:31;5.72;;;5.20;;
19830;SDS011;10076;52.008;4.708;2023-06-10T13:38:56;8.10;;;4.80;;
19830;SDS011;10076;52.008;4.708;2023-06-10T13:41:21;5.68;;;5.03;;
19830;SDS011;10076;52.008;4.708;2023-06-10T13:43:47;6.20;;;4.95;;
19830;SDS011;10076;52.008;4.708;2023-06-10T13:46:12;5.15;;;4.38;;
19830;SDS011;10076;52.008;4.708;2023-06-10T13:48:38;5.53;;;4.95;;
19830;SDS011;10076;52.008;4.708;2023-06-10T13:51:03;7.43;;;5.15;;
19830;SDS011;10076;52.008;4.708;2023-06-10T13:53:28;7.38;;;5.60;;
19830;SDS011;10076;52.008;4.708;2023-06-10T13:55:54;7.05;;;5.68;;
19830;SDS011;10076;52.008;4.708;2023-06-10T13:58:19;6.13;;;4.85;;
19830;SDS011;10076;52.008;4.708;2023-06-10T14:00:44;5.80;;;4.80;;
19830;SDS011;10076;52.008;4.708;2023-06-10T14:03:10;6.38;;;5.10;;
19830;SDS011;10076;52.008;4.708;2023-06-10T14:05:36;6.30;;;5.53;;
19830;SDS011;10076;52.008;4.708;2023-06-10T14:08:02;8.10;;;5.13;;
19830;SDS011;10076;52.008;4.708;2023-06-10T14:10:27;6.13;;;5.07;;
19830;SDS011;10076;52.008;4.708;2023-06-10T14:12:53;5.97;;;5.22;;
19830;SDS011;10076;52.008;4.708;2023-06-10T14:15:18;5.53;;;4.97;;
19830;SDS011;10076;52.008;4.708;2023-06-10T14:17:44;6.97;;;5.18;;
19830;SDS011;10076;52.008;4.708;2023-06-10T14:20:09;5.20;;;4.68;;
19830;SDS011;10076;52.008;4.708;2023-06-10T14:22:35;6.05;;;4.68;;
19830;SDS011;10076;52.008;4.708;2023-06-10T14:25:00;5.40;;;4.57;;
19830;SDS011;10076;52.008;4.708;2023-06-10T14:27:25;8.70;;;5.50;;
19830;SDS011;10076;52.008;4.708;2023-06-10T14:29:51;6.45;;;4.75;;
19830;SDS011;10076;52.008;4.708;2023-06-10T14:32:16;5.95;;;4.78;;
19830;SDS011;10076;52.008;4.708;2023-06-10T14:34:41;6.55;;;5.28;;
19830;SDS011;10076;52.008;4.708;2023-06-10T14:37:09;5.43;;;4.93;;
19830;SDS011;10076;52.008;4.708;2023-06-10T14:39:34;5.38;;;4.88;;
19830;SDS011;10076;52.008;4.708;2023-06-10T14:42:00;5.25;;;4.70;;
19830;SDS011;10076;52.008;4.708;2023-06-10T14:44:25;5.93;;;4.78;;
19830;SDS011;10076;52.008;4.708;2023-06-10T14:46:51;6.07;;;5.00;;
19830;SDS011;10076;52.008;4.708;2023-06-10T14:49:16;5.82;;;4.85;;
19830;SDS011;10076;52.008;4.708;2023-06-10T14:51:41;7.13;;;4.53;;
19830;SDS011;10076;52.008;4.708;2023-06-10T14:54:06;5.03;;;4.53;;
19830;SDS011;10076;52.008;4.708;2023-06-10T14:56:32;5.32;;;4.82;;
19830;SDS011;10076;52.008;4.708;2023-06-10T14:58:57;5.25;;;4.70;;
19830;SDS011;10076;52.008;4.708;2023-06-10T15:01:22;5.65;;;4.43;;
19830;SDS011;10076;52.008;4.708;2023-06-10T15:03:47;6.78;;;4.50;;
19830;SDS011;10076;52.008;4.708;2023-06-10T15:06:13;4.90;;;4.30;;
19830;SDS011;10076;52.008;4.708;2023-06-10T15:08:42;6.18;;;4.47;;
19830;SDS011;10076;52.008;4.708;2023-06-10T15:11:07;4.72;;;4.25;;